sensor_id;sensor_type;location;lat;lon;timestamp;P1;durP1;ratioP1;P2;durP2;ratioP2
3924;SDS011;1977;52.274;10.518;2023-11-21T00:02:12;15.13;;;8.00;;
3924;SDS011;1977;52.274;10.518;2023-11-21T00:04:40;10.30;;;7.27;;
3924;SDS011;1977;52.274;10.518;2023-11-21T00:07:07;12.37;;;7.70;;
3924;SDS011;1977;52.274;10.518;2023-11-21T00:09:34;10.60;;;7.50;;
3924;SDS011;1977;52.274;10.518;2023-11-21T00:12:01;7.93;;;7.07;;
3924;SDS011;1977;52.274;10.518;2023-11-21T00:14:28;8.60;;;7.07;;
3924;SDS011;1977;52.274;10.518;2023-11-21T00:16:55;8.63;;;7.10;;
3924;SDS011;1977;52.274;10.518;2023-11-21T00:19:22;13.07;;;7.77;;
3924;SDS011;1977;52.274;10.518;2023-11-21T00:21:50;10.93;;;8.23;;
3924;SDS011;1977;52.274;10.518;2023-11-21T00:24:17;12.03;;;8.07;;
3924;SDS011;1977;52.274;10.518;2023-11-21T00:26:44;11.20;;;8.20;;
3924;SDS011;1977;52.274;10.518;2023-11-21T00:29:13;12.23;;;7.70;;
3924;SDS011;1977;52.274;10.518;2023-11-21T00:31:39;10.27;;;8.37;;
3924;SDS011;1977;52.274;10.518;2023-11-21T00:34:05;12.13;;;8.30;;
3924;SDS011;1977;52.274;10.518;2023-11-21T00:36:32;13.47;;;8.30;;
3924;SDS011;1977;52.274;10.518;2023-11-21T00:39:00;14.30;;;8.33;;
3924;SDS011;1977;52.274;10.518;2023-11-21T00:41:27;11.27;;;8.33;;
3924;SDS011;1977;52.274;10.518;2023-11-21T00:43:54;9.77;;;7.93;;
3924;SDS011;1977;52.274;10.518;2023-11-21T00:46:21;13.70;;;8.23;;
3924;SDS011;1977;52.274;10.518;2023-11-21T00:48:49;11.73;;;9.17;;
3924;SDS011;1977;52.274;10.518;2023-11-21T00:51:16;12.80;;;9.10;;
3924;SDS011;1977;52.274;10.518;2023-11-21T00:53:42;13.80;;;8.73;;
3924;SDS011;1977;52.274;10.518;2023-11-21T00:56:11;14.10;;;8.97;;
3924;SDS011;1977;52.274;10.518;2023-11-21T00:58:38;10.03;;;8.93;;
3924;SDS011;1977;52.274;10.518;2023-11-21T01:01:07;9.57;;;8.10;;
3924;SDS011;1977;52.274;10.518;2023-11-21T01:03:34;15.67;;;9.40;;
3924;SDS011;1977;52.274;10.518;2023-11-21T01:06:01;12.10;;;8.80;;
3924;SDS011;1977;52.274;10.518;2023-11-21T01:08:28;11.47;;;9.10;;
3924;SDS011;1977;52.274;10.518;2023-11-21T01:10:55;14.90;;;8.97;;
3924;SDS011;1977;52.274;10.518;2023-11-21T01:13:23;12.70;;;9.50;;
3924;SDS011;1977;52.274;10.518;2023-11-21T01:15:54;14.17;;;10.60;;
3924;SDS011;1977;52.274;10.518;2023-11-21T01:18:21;18.60;;;10.73;;
3924;SDS011;1977;52.274;10.518;2023-11-21T01:20:50;19.80;;;10.87;;
3924;SDS011;1977;52.274;10.518;2023-11-21T01:23:18;16.17;;;10.07;;
3924;SDS011;1977;52.274;10.518;2023-11-21T01:25:44;12.13;;;9.20;;
3924;SDS011;1977;52.274;10.518;2023-11-21T01:28:11;14.27;;;9.80;;
3924;SDS011;1977;52.274;10.518;2023-11-21T01:30:39;12.13;;;9.83;;
3924;SDS011;1977;52.274;10.518;2023-11-21T01:33:06;16.20;;;10.07;;
3924;SDS011;1977;52.274;10.518;2023-11-21T01:35:33;13.30;;;9.10;;
3924;SDS011;1977;52.274;10.518;2023-11-21T01:38:00;24.57;;;10.23;;
3924;SDS011;1977;52.274;10.518;2023-11-21T01:40:28;15.27;;;9.80;;
3924;SDS011;1977;52.274;10.518;2023-11-21T01:42:55;13.23;;;9.80;;
3924;SDS011;1977;52.274;10.518;2023-11-21T01:45:23;12.97;;;9.53;;
3924;SDS011;1977;52.274;10.518;2023-11-21T01:47:52;12.40;;;9.40;;
3924;SDS011;1977;52.274;10.518;2023-11-21T01:50:19;12.27;;;9.70;;
3924;SDS011;1977;52.274;10.518;2023-11-21T01:52:47;12.40;;;9.57;;
3924;SDS011;1977;52.274;10.518;2023-11-21T01:55:15;16.13;;;9.60;;
3924;SDS011;1977;52.274;10.518;2023-11-21T01:57:44;20.30;;;9.27;;
3924;SDS011;1977;52.274;10.518;2023-11-21T02:00:12;17.90;;;10.10;;
3924;SDS011;1977;52.274;10.518;2023-11-21T02:02:41;15.33;;;10.20;;
3924;SDS011;1977;52.274;10.518;2023-11-21T02:05:10;16.23;;;11.10;;
3924;SDS011;1977;52.274;10.518;2023-11-21T02:07:38;16.50;;;10.30;;
3924;SDS011;1977;52.274;10.518;2023-11-21T02:10:05;15.20;;;9.47;;
3924;SDS011;1977;52.274;10.518;2023-11-21T02:12:33;20.03;;;11.33;;
3924;SDS011;1977;52.274;10.518;2023-11-21T02:15:01;16.80;;;10.77;;
3924;SDS011;1977;52.274;10.518;2023-11-21T02:17:30;15.83;;;10.17;;
3924;SDS011;1977;52.274;10.518;2023-11-21T02:19:57;18.83;;;9.97;;
3924;SDS011;1977;52.274;10.518;2023-11-21T02:22:26;17.10;;;10.70;;
3924;SDS011;1977;52.274;10.518;2023-11-21T02:24:58;14.93;;;10.77;;
3924;SDS011;1977;52.274;10.518;2023-11-21T02:27:25;17.40;;;10.60;;
3924;SDS011;1977;52.274;10.518;2023-11-21T02:29:52;16.70;;;10.30;;
3924;SDS011;1977;52.274;10.518;2023-11-21T02:32:19;17.20;;;10.77;;
3924;SDS011;1977;52.274;10.518;2023-11-21T02:34:48;17.00;;;11.00;;
3924;SDS011;1977;52.274;10.518;2023-11-21T02:37:14;19.57;;;12.30;;
3924;SDS011;1977;52.274;10.518;2023-11-21T02:39:41;15.70;;;11.60;;
3924;SDS011;1977;52.274;10.518;2023-11-21T02:42:10;18.27;;;10.97;;
3924;SDS011;1977;52.274;10.518;2023-11-21T02:44:36;15.17;;;10.57;;
3924;SDS011;1977;52.274;10.518;2023-11-21T02:47:03;19.00;;;10.23;;
3924;SDS011;1977;52.274;10.518;2023-11-21T02:49:30;18.83;;;12.40;;
3924;SDS011;1977;52.274;10.518;2023-11-21T02:51:59;14.93;;;11.37;;
3924;SDS011;1977;52.274;10.518;2023-11-21T02:54:26;15.13;;;11.53;;
3924;SDS011;1977;52.274;10.518;2023-11-21T02:56:53;17.17;;;11.70;;
3924;SDS011;1977;52.274;10.518;2023-11-21T02:59:21;17.60;;;11.90;;
3924;SDS011;1977;52.274;10.518;2023-11-21T03:01:48;18.90;;;12.40;;
3924;SDS011;1977;52.274;10.518;2023-11-21T03:04:15;16.60;;;11.30;;
3924;SDS011;1977;52.274;10.518;2023-11-21T03:06:43;15.73;;;12.10;;
3924;SDS011;1977;52.274;10.518;2023-11-21T03:09:10;19.67;;;12.90;;
3924;SDS011;1977;52.274;10.518;2023-11-21T03:11:38;22.53;;;11.93;;
3924;SDS011;1977;52.274;10.518;2023-11-21T03:14:04;21.93;;;11.10;;
3924;SDS011;1977;52.274;10.518;2023-11-21T03:16:33;18.83;;;12.60;;
3924;SDS011;1977;52.274;10.518;2023-11-21T03:19:00;16.60;;;11.57;;
3924;SDS011;1977;52.274;10.518;2023-11-21T03:21:27;20.70;;;11.63;;
3924;SDS011;1977;52.274;10.518;2023-11-21T03:23:54;19.83;;;13.23;;
3924;SDS011;1977;52.274;10.518;2023-11-21T03:26:21;16.83;;;11.77;;
3924;SDS011;1977;52.274;10.518;2023-11-21T03:28:47;22.47;;;12.40;;
3924;SDS011;1977;52.274;10.518;2023-11-21T03:31:15;18.43;;;11.90;;
3924;SDS011;1977;52.274;10.518;2023-11-21T03:33:45;21.37;;;13.50;;
3924;SDS011;1977;52.274;10.518;2023-11-21T03:36:12;22.33;;;13.47;;
3924;SDS011;1977;52.274;10.518;2023-11-21T03:38:39;19.23;;;12.80;;
3924;SDS011;1977;52.274;10.518;2023-11-21T03:41:06;21.20;;;12.80;;
3924;SDS011;1977;52.274;10.518;2023-11-21T03:43:35;20.40;;;13.10;;
3924;SDS011;1977;52.274;10.518;2023-11-21T03:46:01;18.73;;;12.80;;
3924;SDS011;1977;52.274;10.518;2023-11-21T03:48:28;21.90;;;12.03;;
3924;SDS011;1977;52.274;10.518;2023-11-21T03:50:56;21.10;;;12.90;;
3924;SDS011;1977;52.274;10.518;2023-11-21T03:53:23;18.47;;;12.80;;
3924;SDS011;1977;52.274;10.518;2023-11-21T03:55:50;24.67;;;14.27;;
3924;SDS011;1977;52.274;10.518;2023-11-21T03:58:17;22.67;;;14.37;;
3924;SDS011;1977;52.274;10.518;2023-11-21T04:00:44;23.33;;;12.83;;
3924;SDS011;1977;52.274;10.518;2023-11-21T04:03:10;22.67;;;14.30;;
3924;SDS011;1977;52.274;10.518;2023-11-21T04:05:38;22.43;;;13.00;;
3924;SDS011;1977;52.274;10.518;2023-11-21T04:08:07;31.17;;;16.17;;
3924;SDS011;1977;52.274;10.518;2023-11-21T04:10:34;25.60;;;12.87;;
3924;SDS011;1977;52.274;10.518;2023-11-21T04:13:01;19.30;;;13.30;;
3924;SDS011;1977;52.274;10.518;2023-11-21T04:15:28;22.97;;;14.03;;
3924;SDS011;1977;52.274;10.518;2023-11-21T04:17:54;21.47;;;14.80;;
3924;SDS011;1977;52.274;10.518;2023-11-21T04:20:22;21.73;;;13.83;;
3924;SDS011;1977;52.274;10.518;2023-11-21T04:22:48;23.70;;;15.07;;
3924;SDS011;1977;52.274;10.518;2023-11-21T04:25:16;25.57;;;14.80;;
3924;SDS011;1977;52.274;10.518;2023-11-21T04:27:44;20.00;;;13.30;;
3924;SDS011;1977;52.274;10.518;2023-11-21T04:30:12;28.57;;;14.10;;
3924;SDS011;1977;52.274;10.518;2023-11-21T04:32:39;22.10;;;12.90;;
3924;SDS011;1977;52.274;10.518;2023-11-21T04:35:07;25.37;;;13.97;;
3924;SDS011;1977;52.274;10.518;2023-11-21T04:37:34;24.33;;;14.27;;
3924;SDS011;1977;52.274;10.518;2023-11-21T04:40:01;23.87;;;12.77;;
3924;SDS011;1977;52.274;10.518;2023-11-21T04:42:32;25.37;;;14.07;;
3924;SDS011;1977;52.274;10.518;2023-11-21T04:45:00;25.30;;;13.87;;
3924;SDS011;1977;52.274;10.518;2023-11-21T04:47:30;21.00;;;14.17;;
3924;SDS011;1977;52.274;10.518;2023-11-21T04:49:57;24.50;;;14.73;;
3924;SDS011;1977;52.274;10.518;2023-11-21T04:52:24;24.10;;;13.10;;
3924;SDS011;1977;52.274;10.518;2023-11-21T04:54:50;20.43;;;14.60;;
3924;SDS011;1977;52.274;10.518;2023-11-21T04:57:19;23.07;;;13.60;;
3924;SDS011;1977;52.274;10.518;2023-11-21T04:59:48;24.33;;;13.23;;
3924;SDS011;1977;52.274;10.518;2023-11-21T05:02:15;24.07;;;15.50;;
3924;SDS011;1977;52.274;10.518;2023-11-21T05:04:44;26.17;;;15.27;;
3924;SDS011;1977;52.274;10.518;2023-11-21T05:07:11;24.37;;;14.73;;
3924;SDS011;1977;52.274;10.518;2023-11-21T05:09:40;22.93;;;14.53;;
3924;SDS011;1977;52.274;10.518;2023-11-21T05:12:09;28.30;;;16.23;;
3924;SDS011;1977;52.274;10.518;2023-11-21T05:14:36;25.77;;;15.27;;
3924;SDS011;1977;52.274;10.518;2023-11-21T05:17:04;25.30;;;16.07;;
3924;SDS011;1977;52.274;10.518;2023-11-21T05:19:33;23.03;;;14.83;;
3924;SDS011;1977;52.274;10.518;2023-11-21T05:22:00;25.00;;;14.93;;
3924;SDS011;1977;52.274;10.518;2023-11-21T05:24:27;29.67;;;15.83;;
3924;SDS011;1977;52.274;10.518;2023-11-21T05:26:54;22.40;;;14.40;;
3924;SDS011;1977;52.274;10.518;2023-11-21T05:29:21;30.00;;;15.37;;
3924;SDS011;1977;52.274;10.518;2023-11-21T05:31:48;30.03;;;16.00;;
3924;SDS011;1977;52.274;10.518;2023-11-21T05:34:16;26.13;;;15.93;;
3924;SDS011;1977;52.274;10.518;2023-11-21T05:36:43;23.30;;;15.70;;
3924;SDS011;1977;52.274;10.518;2023-11-21T05:39:10;24.17;;;16.07;;
3924;SDS011;1977;52.274;10.518;2023-11-21T05:41:37;21.67;;;15.20;;
3924;SDS011;1977;52.274;10.518;2023-11-21T05:44:04;24.83;;;15.97;;
3924;SDS011;1977;52.274;10.518;2023-11-21T05:46:31;24.03;;;16.10;;
3924;SDS011;1977;52.274;10.518;2023-11-21T05:48:58;24.07;;;14.33;;
3924;SDS011;1977;52.274;10.518;2023-11-21T05:51:26;22.57;;;14.60;;
3924;SDS011;1977;52.274;10.518;2023-11-21T05:53:53;25.80;;;16.80;;
3924;SDS011;1977;52.274;10.518;2023-11-21T05:56:20;26.37;;;15.33;;
3924;SDS011;1977;52.274;10.518;2023-11-21T05:58:46;21.57;;;14.00;;
3924;SDS011;1977;52.274;10.518;2023-11-21T06:01:13;24.20;;;15.03;;
3924;SDS011;1977;52.274;10.518;2023-11-21T06:03:40;25.90;;;15.13;;
3924;SDS011;1977;52.274;10.518;2023-11-21T06:06:07;20.07;;;14.17;;
3924;SDS011;1977;52.274;10.518;2023-11-21T06:08:35;21.80;;;13.43;;
3924;SDS011;1977;52.274;10.518;2023-11-21T06:11:02;18.57;;;12.90;;
3924;SDS011;1977;52.274;10.518;2023-11-21T06:13:29;20.70;;;11.77;;
3924;SDS011;1977;52.274;10.518;2023-11-21T06:15:56;14.63;;;8.63;;
3924;SDS011;1977;52.274;10.518;2023-11-21T06:18:23;9.20;;;6.10;;
3924;SDS011;1977;52.274;10.518;2023-11-21T06:20:50;6.70;;;6.00;;
3924;SDS011;1977;52.274;10.518;2023-11-21T06:23:18;5.77;;;5.27;;
3924;SDS011;1977;52.274;10.518;2023-11-21T06:25:46;4.57;;;4.20;;
3924;SDS011;1977;52.274;10.518;2023-11-21T06:28:13;4.40;;;4.00;;
3924;SDS011;1977;52.274;10.518;2023-11-21T06:30:42;3.67;;;3.47;;
3924;SDS011;1977;52.274;10.518;2023-11-21T06:33:10;4.10;;;3.67;;
3924;SDS011;1977;52.274;10.518;2023-11-21T06:35:37;3.40;;;3.20;;
3924;SDS011;1977;52.274;10.518;2023-11-21T06:38:05;3.87;;;3.57;;
3924;SDS011;1977;52.274;10.518;2023-11-21T06:40:31;3.77;;;3.53;;
3924;SDS011;1977;52.274;10.518;2023-11-21T06:43:00;4.57;;;3.97;;
3924;SDS011;1977;52.274;10.518;2023-11-21T06:45:27;3.60;;;3.33;;
3924;SDS011;1977;52.274;10.518;2023-11-21T06:47:54;5.83;;;5.23;;
3924;SDS011;1977;52.274;10.518;2023-11-21T06:50:21;7.17;;;5.07;;
3924;SDS011;1977;52.274;10.518;2023-11-21T06:52:48;6.30;;;5.70;;
3924;SDS011;1977;52.274;10.518;2023-11-21T06:55:14;6.30;;;5.47;;
3924;SDS011;1977;52.274;10.518;2023-11-21T06:57:42;6.80;;;6.10;;
3924;SDS011;1977;52.274;10.518;2023-11-21T07:00:11;6.90;;;6.30;;
3924;SDS011;1977;52.274;10.518;2023-11-21T07:02:40;11.63;;;6.60;;
3924;SDS011;1977;52.274;10.518;2023-11-21T07:05:07;7.40;;;6.23;;
3924;SDS011;1977;52.274;10.518;2023-11-21T07:07:33;9.47;;;7.97;;
3924;SDS011;1977;52.274;10.518;2023-11-21T07:10:02;9.60;;;7.20;;
3924;SDS011;1977;52.274;10.518;2023-11-21T07:12:29;11.10;;;7.70;;
3924;SDS011;1977;52.274;10.518;2023-11-21T07:14:56;10.20;;;7.93;;
3924;SDS011;1977;52.274;10.518;2023-11-21T07:17:24;12.10;;;9.10;;
3924;SDS011;1977;52.274;10.518;2023-11-21T07:19:51;13.47;;;9.63;;
3924;SDS011;1977;52.274;10.518;2023-11-21T07:22:18;10.07;;;8.57;;
3924;SDS011;1977;52.274;10.518;2023-11-21T07:24:47;12.00;;;9.90;;
3924;SDS011;1977;52.274;10.518;2023-11-21T07:27:14;14.40;;;9.60;;
3924;SDS011;1977;52.274;10.518;2023-11-21T07:29:41;14.40;;;10.47;;
3924;SDS011;1977;52.274;10.518;2023-11-21T07:32:08;13.10;;;9.80;;
3924;SDS011;1977;52.274;10.518;2023-11-21T07:34:36;14.57;;;9.30;;
3924;SDS011;1977;52.274;10.518;2023-11-21T07:37:03;11.73;;;9.83;;
3924;SDS011;1977;52.274;10.518;2023-11-21T07:39:30;13.50;;;9.63;;
3924;SDS011;1977;52.274;10.518;2023-11-21T07:41:57;13.43;;;10.37;;
3924;SDS011;1977;52.274;10.518;2023-11-21T07:44:23;12.03;;;9.70;;
3924;SDS011;1977;52.274;10.518;2023-11-21T07:46:51;14.30;;;10.33;;
3924;SDS011;1977;52.274;10.518;2023-11-21T07:49:22;11.50;;;9.70;;
3924;SDS011;1977;52.274;10.518;2023-11-21T07:51:50;12.50;;;9.73;;
3924;SDS011;1977;52.274;10.518;2023-11-21T07:54:17;13.70;;;9.97;;
3924;SDS011;1977;52.274;10.518;2023-11-21T07:56:43;15.80;;;10.27;;
3924;SDS011;1977;52.274;10.518;2023-11-21T07:59:10;11.70;;;9.17;;
3924;SDS011;1977;52.274;10.518;2023-11-21T08:01:37;12.47;;;9.33;;
3924;SDS011;1977;52.274;10.518;2023-11-21T08:04:05;13.27;;;9.90;;
3924;SDS011;1977;52.274;10.518;2023-11-21T08:06:33;12.60;;;8.60;;
3924;SDS011;1977;52.274;10.518;2023-11-21T08:09:01;13.80;;;10.70;;
3924;SDS011;1977;52.274;10.518;2023-11-21T08:11:28;21.40;;;10.00;;
3924;SDS011;1977;52.274;10.518;2023-11-21T08:13:57;13.63;;;9.70;;
3924;SDS011;1977;52.274;10.518;2023-11-21T08:16:24;14.33;;;10.17;;
3924;SDS011;1977;52.274;10.518;2023-11-21T08:18:50;13.97;;;10.10;;
3924;SDS011;1977;52.274;10.518;2023-11-21T08:21:17;9.77;;;8.73;;
3924;SDS011;1977;52.274;10.518;2023-11-21T08:23:45;11.27;;;9.60;;
3924;SDS011;1977;52.274;10.518;2023-11-21T08:26:15;13.10;;;10.50;;
3924;SDS011;1977;52.274;10.518;2023-11-21T08:28:43;13.43;;;10.40;;
3924;SDS011;1977;52.274;10.518;2023-11-21T08:31:10;13.60;;;10.73;;
3924;SDS011;1977;52.274;10.518;2023-11-21T08:33:36;13.73;;;10.63;;
3924;SDS011;1977;52.274;10.518;2023-11-21T08:36:06;14.27;;;9.90;;
3924;SDS011;1977;52.274;10.518;2023-11-21T08:38:33;14.90;;;11.17;;
3924;SDS011;1977;52.274;10.518;2023-11-21T08:41:02;12.00;;;10.10;;
3924;SDS011;1977;52.274;10.518;2023-11-21T08:43:33;18.60;;;10.10;;
3924;SDS011;1977;52.274;10.518;2023-11-21T08:46:00;10.33;;;9.23;;
3924;SDS011;1977;52.274;10.518;2023-11-21T08:48:28;10.33;;;9.30;;
3924;SDS011;1977;52.274;10.518;2023-11-21T08:50:55;10.90;;;8.10;;
3924;SDS011;1977;52.274;10.518;2023-11-21T08:53:21;10.97;;;8.57;;
3924;SDS011;1977;52.274;10.518;2023-11-21T08:55:48;7.93;;;7.17;;
3924;SDS011;1977;52.274;10.518;2023-11-21T08:58:15;8.83;;;7.73;;
3924;SDS011;1977;52.274;10.518;2023-11-21T09:00:43;9.87;;;8.07;;
3924;SDS011;1977;52.274;10.518;2023-11-21T09:03:11;8.30;;;7.47;;
3924;SDS011;1977;52.274;10.518;2023-11-21T09:05:38;9.60;;;7.83;;
3924;SDS011;1977;52.274;10.518;2023-11-21T09:08:05;8.80;;;8.00;;
3924;SDS011;1977;52.274;10.518;2023-11-21T09:10:33;10.23;;;8.70;;
3924;SDS011;1977;52.274;10.518;2023-11-21T09:13:01;8.40;;;7.50;;
3924;SDS011;1977;52.274;10.518;2023-11-21T09:15:28;8.73;;;7.83;;
3924;SDS011;1977;52.274;10.518;2023-11-21T09:17:56;7.63;;;6.93;;
3924;SDS011;1977;52.274;10.518;2023-11-21T09:20:23;7.97;;;7.33;;
3924;SDS011;1977;52.274;10.518;2023-11-21T09:22:50;7.93;;;7.23;;
3924;SDS011;1977;52.274;10.518;2023-11-21T09:25:17;7.63;;;6.93;;
3924;SDS011;1977;52.274;10.518;2023-11-21T09:27:44;7.07;;;6.37;;
3924;SDS011;1977;52.274;10.518;2023-11-21T09:30:11;7.80;;;7.10;;
3924;SDS011;1977;52.274;10.518;2023-11-21T09:32:39;7.90;;;7.20;;
3924;SDS011;1977;52.274;10.518;2023-11-21T09:35:08;8.73;;;7.67;;
3924;SDS011;1977;52.274;10.518;2023-11-21T09:37:35;7.53;;;6.73;;
3924;SDS011;1977;52.274;10.518;2023-11-21T09:40:03;8.03;;;7.17;;
3924;SDS011;1977;52.274;10.518;2023-11-21T09:42:30;8.23;;;7.03;;
3924;SDS011;1977;52.274;10.518;2023-11-21T09:45:03;8.00;;;7.03;;
3924;SDS011;1977;52.274;10.518;2023-11-21T09:47:32;8.47;;;7.77;;
3924;SDS011;1977;52.274;10.518;2023-11-21T09:50:02;7.40;;;6.70;;
3924;SDS011;1977;52.274;10.518;2023-11-21T09:52:30;8.40;;;7.70;;
3924;SDS011;1977;52.274;10.518;2023-11-21T09:54:58;9.10;;;8.20;;
3924;SDS011;1977;52.274;10.518;2023-11-21T09:57:26;9.47;;;7.97;;
3924;SDS011;1977;52.274;10.518;2023-11-21T09:59:54;8.33;;;7.50;;
3924;SDS011;1977;52.274;10.518;2023-11-21T10:02:23;9.17;;;8.27;;
3924;SDS011;1977;52.274;10.518;2023-11-21T10:04:53;8.40;;;7.50;;
3924;SDS011;1977;52.274;10.518;2023-11-21T10:07:21;10.33;;;7.60;;
3924;SDS011;1977;52.274;10.518;2023-11-21T10:09:50;10.13;;;8.60;;
3924;SDS011;1977;52.274;10.518;2023-11-21T10:12:18;8.70;;;7.80;;
3924;SDS011;1977;52.274;10.518;2023-11-21T10:14:47;8.20;;;7.37;;
3924;SDS011;1977;52.274;10.518;2023-11-21T10:17:15;8.13;;;7.33;;
3924;SDS011;1977;52.274;10.518;2023-11-21T10:19:43;8.50;;;7.70;;
3924;SDS011;1977;52.274;10.518;2023-11-21T10:22:13;9.73;;;7.20;;
3924;SDS011;1977;52.274;10.518;2023-11-21T10:24:41;9.57;;;8.67;;
3924;SDS011;1977;52.274;10.518;2023-11-21T10:27:09;8.63;;;7.47;;
3924;SDS011;1977;52.274;10.518;2023-11-21T10:29:38;8.73;;;7.83;;
3924;SDS011;1977;52.274;10.518;2023-11-21T10:32:07;9.50;;;8.57;;
3924;SDS011;1977;52.274;10.518;2023-11-21T10:34:34;8.30;;;7.60;;
3924;SDS011;1977;52.274;10.518;2023-11-21T10:37:07;8.90;;;7.90;;
3924;SDS011;1977;52.274;10.518;2023-11-21T10:39:36;10.20;;;8.50;;
3924;SDS011;1977;52.274;10.518;2023-11-21T10:42:07;7.03;;;6.40;;
3924;SDS011;1977;52.274;10.518;2023-11-21T10:44:36;8.40;;;7.33;;
3924;SDS011;1977;52.274;10.518;2023-11-21T10:47:02;9.13;;;8.23;;
3924;SDS011;1977;52.274;10.518;2023-11-21T10:49:30;9.17;;;7.43;;
3924;SDS011;1977;52.274;10.518;2023-11-21T10:51:57;10.00;;;7.83;;
3924;SDS011;1977;52.274;10.518;2023-11-21T10:54:24;9.40;;;8.40;;
3924;SDS011;1977;52.274;10.518;2023-11-21T10:56:53;12.40;;;8.30;;
3924;SDS011;1977;52.274;10.518;2023-11-21T10:59:25;8.30;;;7.60;;
3924;SDS011;1977;52.274;10.518;2023-11-21T11:01:55;9.13;;;7.90;;
3924;SDS011;1977;52.274;10.518;2023-11-21T11:04:26;8.50;;;7.70;;
3924;SDS011;1977;52.274;10.518;2023-11-21T11:06:54;8.33;;;7.53;;
3924;SDS011;1977;52.274;10.518;2023-11-21T11:09:23;9.30;;;8.17;;
3924;SDS011;1977;52.274;10.518;2023-11-21T11:11:50;8.50;;;7.70;;
3924;SDS011;1977;52.274;10.518;2023-11-21T11:14:18;10.03;;;7.77;;
3924;SDS011;1977;52.274;10.518;2023-11-21T11:16:53;9.30;;;8.40;;
3924;SDS011;1977;52.274;10.518;2023-11-21T11:19:21;10.70;;;8.20;;
3924;SDS011;1977;52.274;10.518;2023-11-21T11:21:50;9.93;;;8.93;;
3924;SDS011;1977;52.274;10.518;2023-11-21T11:27:30;8.60;;;7.80;;
3924;SDS011;1977;52.274;10.518;2023-11-21T11:30:09;7.53;;;6.83;;
3924;SDS011;1977;52.274;10.518;2023-11-21T11:32:53;9.43;;;8.53;;
3924;SDS011;1977;52.274;10.518;2023-11-21T11:35:29;9.37;;;8.47;;
3924;SDS011;1977;52.274;10.518;2023-11-21T11:38:01;10.13;;;8.07;;
3924;SDS011;1977;52.274;10.518;2023-11-21T11:40:38;9.10;;;8.20;;
3924;SDS011;1977;52.274;10.518;2023-11-21T11:43:06;9.47;;;7.40;;
3924;SDS011;1977;52.274;10.518;2023-11-21T11:45:33;8.77;;;7.87;;
3924;SDS011;1977;52.274;10.518;2023-11-21T11:48:07;9.10;;;8.20;;
3924;SDS011;1977;52.274;10.518;2023-11-21T11:50:41;8.40;;;7.60;;
3924;SDS011;1977;52.274;10.518;2023-11-21T11:53:28;7.73;;;6.87;;
3924;SDS011;1977;52.274;10.518;2023-11-21T11:58:47;7.70;;;7.00;;
3924;SDS011;1977;52.274;10.518;2023-11-21T12:01:16;7.67;;;6.93;;
3924;SDS011;1977;52.274;10.518;2023-11-21T12:03:45;7.30;;;6.60;;
3924;SDS011;1977;52.274;10.518;2023-11-21T12:06:56;8.33;;;7.53;;
3924;SDS011;1977;52.274;10.518;2023-11-21T12:09:25;7.67;;;6.90;;
3924;SDS011;1977;52.274;10.518;2023-11-21T12:11:53;7.17;;;6.47;;
3924;SDS011;1977;52.274;10.518;2023-11-21T12:14:21;7.83;;;7.13;;
3924;SDS011;1977;52.274;10.518;2023-11-21T12:16:49;7.23;;;6.67;;
3924;SDS011;1977;52.274;10.518;2023-11-21T12:19:18;7.53;;;6.90;;
3924;SDS011;1977;52.274;10.518;2023-11-21T12:21:46;7.53;;;6.37;;
3924;SDS011;1977;52.274;10.518;2023-11-21T12:24:13;7.43;;;6.23;;
3924;SDS011;1977;52.274;10.518;2023-11-21T12:26:41;7.40;;;6.70;;
3924;SDS011;1977;52.274;10.518;2023-11-21T12:29:09;6.87;;;6.27;;
3924;SDS011;1977;52.274;10.518;2023-11-21T12:31:35;7.57;;;6.90;;
3924;SDS011;1977;52.274;10.518;2023-11-21T12:34:02;6.83;;;6.33;;
3924;SDS011;1977;52.274;10.518;2023-11-21T12:36:33;7.47;;;6.67;;
3924;SDS011;1977;52.274;10.518;2023-11-21T12:39:01;7.73;;;6.80;;
3924;SDS011;1977;52.274;10.518;2023-11-21T12:41:28;7.13;;;6.43;;
3924;SDS011;1977;52.274;10.518;2023-11-21T12:43:56;6.70;;;6.00;;
3924;SDS011;1977;52.274;10.518;2023-11-21T12:46:23;6.83;;;6.23;;
3924;SDS011;1977;52.274;10.518;2023-11-21T12:48:54;6.70;;;6.20;;
3924;SDS011;1977;52.274;10.518;2023-11-21T12:51:21;7.07;;;6.37;;
3924;SDS011;1977;52.274;10.518;2023-11-21T12:53:50;6.67;;;6.00;;
3924;SDS011;1977;52.274;10.518;2023-11-21T12:56:17;6.60;;;6.00;;
3924;SDS011;1977;52.274;10.518;2023-11-21T12:58:48;6.60;;;6.07;;
3924;SDS011;1977;52.274;10.518;2023-11-21T13:01:16;6.90;;;6.30;;
3924;SDS011;1977;52.274;10.518;2023-11-21T13:03:46;6.60;;;5.70;;
3924;SDS011;1977;52.274;10.518;2023-11-21T13:06:15;6.40;;;5.70;;
3924;SDS011;1977;52.274;10.518;2023-11-21T13:08:43;6.90;;;6.30;;
3924;SDS011;1977;52.274;10.518;2023-11-21T13:11:12;6.70;;;6.20;;
3924;SDS011;1977;52.274;10.518;2023-11-21T13:13:40;6.87;;;6.27;;
3924;SDS011;1977;52.274;10.518;2023-11-21T13:16:08;6.10;;;5.70;;
3924;SDS011;1977;52.274;10.518;2023-11-21T13:18:36;6.40;;;5.90;;
3924;SDS011;1977;52.274;10.518;2023-11-21T13:21:05;6.87;;;6.27;;
3924;SDS011;1977;52.274;10.518;2023-11-21T13:23:37;6.10;;;5.60;;
3924;SDS011;1977;52.274;10.518;2023-11-21T13:26:06;6.73;;;6.13;;
3924;SDS011;1977;52.274;10.518;2023-11-21T13:28:35;5.77;;;5.20;;
3924;SDS011;1977;52.274;10.518;2023-11-21T13:31:03;8.10;;;5.33;;
3924;SDS011;1977;52.274;10.518;2023-11-21T13:33:40;6.40;;;5.30;;
3924;SDS011;1977;52.274;10.518;2023-11-21T13:36:12;5.70;;;5.33;;
3924;SDS011;1977;52.274;10.518;2023-11-21T13:38:41;6.07;;;5.47;;
3924;SDS011;1977;52.274;10.518;2023-11-21T13:41:09;7.57;;;5.77;;
3924;SDS011;1977;52.274;10.518;2023-11-21T13:43:38;12.73;;;6.37;;
3924;SDS011;1977;52.274;10.518;2023-11-21T13:46:09;6.53;;;6.00;;
3924;SDS011;1977;52.274;10.518;2023-11-21T13:48:40;6.00;;;5.60;;
3924;SDS011;1977;52.274;10.518;2023-11-21T13:51:08;6.33;;;5.80;;
3924;SDS011;1977;52.274;10.518;2023-11-21T13:53:42;5.87;;;5.37;;
3924;SDS011;1977;52.274;10.518;2023-11-21T13:56:09;7.13;;;6.33;;
3924;SDS011;1977;52.274;10.518;2023-11-21T13:58:39;7.07;;;6.40;;
3924;SDS011;1977;52.274;10.518;2023-11-21T14:01:11;6.53;;;6.13;;
3924;SDS011;1977;52.274;10.518;2023-11-21T14:03:57;7.03;;;6.43;;
3924;SDS011;1977;52.274;10.518;2023-11-21T14:06:33;6.47;;;5.90;;
3924;SDS011;1977;52.274;10.518;2023-11-21T14:09:07;7.07;;;6.37;;
3924;SDS011;1977;52.274;10.518;2023-11-21T14:11:34;5.87;;;5.40;;
3924;SDS011;1977;52.274;10.518;2023-11-21T14:14:04;6.37;;;5.47;;
3924;SDS011;1977;52.274;10.518;2023-11-21T14:16:31;5.80;;;5.40;;
3924;SDS011;1977;52.274;10.518;2023-11-21T14:18:58;6.20;;;5.63;;
3924;SDS011;1977;52.274;10.518;2023-11-21T14:21:31;7.37;;;6.77;;
3924;SDS011;1977;52.274;10.518;2023-11-21T14:23:58;6.63;;;6.00;;
3924;SDS011;1977;52.274;10.518;2023-11-21T14:26:25;6.83;;;5.97;;
3924;SDS011;1977;52.274;10.518;2023-11-21T14:28:54;6.00;;;5.50;;
3924;SDS011;1977;52.274;10.518;2023-11-21T14:31:23;6.30;;;5.90;;
3924;SDS011;1977;52.274;10.518;2023-11-21T14:33:50;6.33;;;5.83;;
3924;SDS011;1977;52.274;10.518;2023-11-21T14:36:16;5.97;;;5.37;;
3924;SDS011;1977;52.274;10.518;2023-11-21T14:38:43;6.47;;;6.00;;
3924;SDS011;1977;52.274;10.518;2023-11-21T14:41:10;6.33;;;5.73;;
3924;SDS011;1977;52.274;10.518;2023-11-21T14:43:39;5.50;;;5.10;;
3924;SDS011;1977;52.274;10.518;2023-11-21T14:46:06;6.50;;;6.00;;
3924;SDS011;1977;52.274;10.518;2023-11-21T14:48:36;5.83;;;5.43;;
3924;SDS011;1977;52.274;10.518;2023-11-21T14:51:07;8.00;;;5.87;;
3924;SDS011;1977;52.274;10.518;2023-11-21T14:53:55;25.83;;;5.90;;
3924;SDS011;1977;52.274;10.518;2023-11-21T14:56:25;8.10;;;5.50;;
3924;SDS011;1977;52.274;10.518;2023-11-21T14:58:53;6.70;;;6.10;;
3924;SDS011;1977;52.274;10.518;2023-11-21T15:01:21;5.63;;;5.23;;